Cardiff-Wales, United Kingdom

3:08 PM BST on August 28, 2015 (GMT +0100)
Cardiff | | Change Station
CLOSE
Current Station
Airport
Location: Cardiff-Wales,
Elevation: 220 ft
Nearby Weather Stations

Elev 220 ft 51.40 °N, 3.34 °W | Updated 18 minutes ago

Scattered Clouds
Scattered Clouds
66 °F
Feels Like 66 °F
N
14
Wind Variable Wind from West

Today
High -- | Low -- °F
--% Chance of Precip.
Yesterday
High -- | Low -- °F
Precip. -- in
6:19 AM 8:09 PM
Waxing Gibbous, 98% visible
Pressure 30.01 in
Visibility 6.2 miles
Clouds Few 2600 ft
Scattered Clouds 3800 ft
Dew Point 54 °F
Humidity 64%
Rainfall 0.00 in
Snow Depth Not available.
UV 5 out of 12
Pollen Not available.
Air Quality Not available.
Flu Activity Not available.
METAR EGFF 281350Z 27012KT 9999 FEW026 SCT038 19/12 Q1016
Pressure 30.01 in
Visibility 6.2 miles
Clouds Few 2600 ft
Scattered Clouds 3800 ft
Dew Point 54 °F
Humidity 64%
Rainfall 0.00 in
Snow Depth Not available.
UV 5 out of 12
Pollen Not available.
Air Quality Not available.
Flu Activity Not available.
METAR EGFF 281350Z 27012KT 9999 FEW026 SCT038 19/12 Q1016

10-Day Weather Forecast

×

Almanac

Astronomy

Aug. 28, 2015 Rise Set
Actual Time
Civil Twilight
Nautical Twilight
Astronomical Twilight
Moon
Length of Visible Light
Length of Day
Tomorrow will be .
, % of the Moon is Illuminated

Today's Extremes

Country Highs Country Lows

Community

WunderPhotos

Upload Photos

1,850,379 photos uploaded!

WunderBlogs® & News

Nearby

Air Quality

  Air Quality AQ Index Pollutant
Not available.

Snow Depth

Station Depth Elevation

Earthquake Activity

City Distance Mag. Time & Date
Minimum magnitude displayed is 2.5.

Coastal Water Temperatures

Place Temperature

Stations

Nearby Weather Stations

Station Location Temp. Windchill Dew Point Humidity Wind Precip. Elev Updated Type